createdAt,value
2023-01-22T00:00:46.333Z,101039.81
2023-01-22T00:03:14.149Z,101033.78
2023-01-22T00:05:41.701Z,101028.63
2023-01-22T00:08:09.383Z,101037.38
2023-01-22T00:10:52.858Z,101033.19
2023-01-22T00:13:23.007Z,101030.44
2023-01-22T00:15:51.007Z,101029.47
2023-01-22T00:18:19.125Z,101022.72
2023-01-22T00:20:48.241Z,101031.25
2023-01-22T00:23:16.275Z,101022.31
2023-01-22T00:25:47.587Z,101036.03
2023-01-22T00:28:17.048Z,101028.75
2023-01-22T00:30:45.145Z,101031.75
2023-01-22T00:33:13.062Z,101032.53
2023-01-22T00:35:40.730Z,101035.19
2023-01-22T00:38:09.557Z,101029.78
2023-01-22T00:40:37.488Z,101042.22
2023-01-22T00:43:06.530Z,101022.16
2023-01-22T00:45:34.192Z,101031.03
2023-01-22T00:48:01.907Z,101035.88
2023-01-22T00:50:29.783Z,101037.03
2023-01-22T00:52:57.747Z,101023.94
2023-01-22T00:55:26.311Z,101028.63
2023-01-22T00:57:54.967Z,101026.31
2023-01-22T01:00:24.093Z,101018.28
2023-01-22T01:03:09.565Z,101024.91
2023-01-22T01:05:37.319Z,101032.22
2023-01-22T01:08:06.031Z,101028.69
2023-01-22T01:10:36.967Z,101033.84
2023-01-22T01:13:06.361Z,101026.22
2023-01-22T01:15:35.765Z,101024.00
2023-01-22T01:18:03.957Z,101021.47
2023-01-22T01:20:31.801Z,101034.03
2023-01-22T01:22:59.384Z,101029.59
2023-01-22T01:25:26.928Z,101025.38
2023-01-22T01:27:54.587Z,101023.56
2023-01-22T01:30:22.337Z,101031.16
2023-01-22T01:32:53.043Z,101019.31
2023-01-22T01:35:22.755Z,101031.56
2023-01-22T01:37:53.239Z,101020.94
2023-01-22T01:40:21.072Z,101019.84
2023-01-22T01:42:48.732Z,101018.78
2023-01-22T01:45:21.525Z,101021.59
2023-01-22T01:47:53.351Z,101013.06
2023-01-22T01:50:24.732Z,101018.72
2023-01-22T01:52:52.389Z,101023.50
2023-01-22T01:55:25.565Z,101021.59
2023-01-22T01:57:54.569Z,101018.84
2023-01-22T02:00:23.456Z,101007.31
2023-01-22T02:02:52.820Z,101014.41
2023-01-22T02:05:21.432Z,101012.00
2023-01-22T02:07:49.104Z,101022.69
2023-01-22T02:10:18.283Z,101012.88
2023-01-22T02:12:46.253Z,101010.25
2023-01-22T02:15:15.085Z,101014.91
2023-01-22T02:17:45.197Z,101005.44
2023-01-22T02:20:14.359Z,101004.22
2023-01-22T02:22:45.721Z,101014.56
2023-01-22T02:25:15.697Z,101010.13
2023-01-22T02:27:43.432Z,101008.00
2023-01-22T02:30:12.286Z,101007.47
2023-01-22T02:32:39.944Z,101014.63
2023-01-22T02:35:08.499Z,101007.94
2023-01-22T02:37:36.201Z,101004.09
2023-01-22T02:40:06.021Z,101007.94
2023-01-22T02:42:33.951Z,101009.63
2023-01-22T02:45:01.689Z,101017.72
2023-01-22T02:47:29.491Z,101013.91
2023-01-22T02:49:57.391Z,101015.63
2023-01-22T02:52:25.306Z,101010.84
2023-01-22T02:54:52.890Z,101010.78
2023-01-22T02:57:21.933Z,101008.28
2023-01-22T02:59:49.758Z,101016.38
2023-01-22T03:02:17.399Z,101005.78
2023-01-22T03:04:46.653Z,101016.97
2023-01-22T03:07:14.522Z,101012.75
2023-01-22T03:09:42.299Z,101007.94
2023-01-22T03:12:10.960Z,101003.28
2023-01-22T03:14:57.401Z,101002.19
2023-01-22T03:17:42.589Z,101005.69
2023-01-22T03:20:29.333Z,101005.31
2023-01-22T03:22:56.931Z,101004.28
2023-01-22T03:25:24.542Z,100999.78
2023-01-22T03:28:18.586Z,101007.53
2023-01-22T03:30:47.539Z,101010.31
2023-01-22T03:33:15.241Z,101008.56
2023-01-22T03:35:42.769Z,101004.56
2023-01-22T03:38:11.485Z,101007.59
2023-01-22T03:40:39.282Z,101009.16
2023-01-22T03:43:06.948Z,101012.16
2023-01-22T03:45:34.575Z,101014.56
2023-01-22T03:48:03.596Z,101015.59
2023-01-22T03:50:31.177Z,101006.22
2023-01-22T03:52:59.126Z,101009.41
2023-01-22T03:55:26.889Z,101010.34
2023-01-22T03:57:54.671Z,101014.31
2023-01-22T04:00:22.762Z,101014.31
2023-01-22T04:02:50.373Z,101004.72
2023-01-22T04:05:19.583Z,101007.84
2023-01-22T04:07:47.150Z,101006.41
2023-01-22T04:10:14.775Z,101017.09
2023-01-22T04:12:42.452Z,101009.72
2023-01-22T04:15:11.808Z,101014.81
2023-01-22T04:17:39.722Z,101012.88
2023-01-22T04:20:08.298Z,101027.16
2023-01-22T04:22:37.823Z,101030.78
2023-01-22T04:25:06.251Z,101028.31
2023-01-22T04:27:37.615Z,101025.06
2023-01-22T04:30:07.600Z,101022.06
2023-01-22T04:32:35.133Z,101023.50
2023-01-22T04:35:03.948Z,101026.03
2023-01-22T04:37:31.625Z,101034.75
2023-01-22T04:40:00.605Z,101033.66
2023-01-22T04:42:28.237Z,101026.13
2023-01-22T04:44:55.827Z,101029.75
2023-01-22T04:47:23.508Z,101037.66
2023-01-22T04:49:51.479Z,101031.44
2023-01-22T04:52:19.084Z,101035.63
2023-01-22T04:54:46.741Z,101036.47
2023-01-22T04:57:15.804Z,101034.47
2023-01-22T04:59:43.379Z,101031.44
2023-01-22T05:02:11.048Z,101032.88
2023-01-22T05:04:38.637Z,101033.03
2023-01-22T05:07:06.332Z,101035.19
2023-01-22T05:09:33.959Z,101039.53
2023-01-22T05:12:02.005Z,101034.72
2023-01-22T05:14:30.887Z,101032.22
2023-01-22T05:16:58.477Z,101039.31
2023-01-22T05:19:26.096Z,101029.22
2023-01-22T05:21:53.811Z,101033.44
2023-01-22T05:24:21.347Z,101044.00
2023-01-22T05:26:50.171Z,101038.00
2023-01-22T05:29:17.762Z,101038.59
2023-01-22T05:31:46.956Z,101039.00
2023-01-22T05:34:14.521Z,101037.69
2023-01-22T05:36:42.117Z,101038.16
2023-01-22T05:39:09.772Z,101042.47
2023-01-22T05:41:37.400Z,101054.97
2023-01-22T05:44:06.157Z,101052.22
2023-01-22T05:46:34.116Z,101058.09
2023-01-22T05:49:03.090Z,101051.97
2023-01-22T05:51:32.340Z,101044.84
2023-01-22T05:54:00.185Z,101046.66
2023-01-22T05:56:28.343Z,101044.50
2023-01-22T05:58:56.031Z,101047.28
2023-01-22T06:01:23.791Z,101047.09
2023-01-22T06:03:52.160Z,101047.78
2023-01-22T06:06:21.269Z,101059.31
2023-01-22T06:08:52.365Z,101060.19
2023-01-22T06:11:20.264Z,101057.00
2023-01-22T06:13:48.125Z,101063.59
2023-01-22T06:16:15.864Z,101063.13
2023-01-22T06:18:43.790Z,101065.66
2023-01-22T06:21:11.465Z,101056.88
2023-01-22T06:27:06.470Z,101060.88
2023-01-22T06:29:35.496Z,101062.13
2023-01-22T06:32:03.080Z,101075.34
2023-01-22T06:34:30.688Z,101075.38
2023-01-22T06:36:58.318Z,101074.22
2023-01-22T06:39:27.365Z,101080.34
2023-01-22T06:41:55.067Z,101090.69
2023-01-22T06:44:23.180Z,101073.56
2023-01-22T06:46:50.915Z,101088.22
2023-01-22T06:49:18.717Z,101083.19
2023-01-22T06:51:48.373Z,101085.91
2023-01-22T06:54:17.032Z,101089.41
2023-01-22T06:56:45.927Z,101088.91
2023-01-22T06:59:13.874Z,101094.09
2023-01-22T07:01:45.017Z,101096.16
2023-01-22T07:04:12.779Z,101098.81
2023-01-22T07:06:40.420Z,101099.38
2023-01-22T07:09:08.218Z,101108.28
2023-01-22T07:11:37.080Z,101108.28
2023-01-22T07:14:06.788Z,101099.75
2023-01-22T07:16:34.448Z,101106.00
2023-01-22T07:19:02.176Z,101110.75
2023-01-22T07:21:29.731Z,101107.31
2023-01-22T07:23:58.500Z,101116.34
2023-01-22T07:26:26.179Z,101113.59
2023-01-22T07:28:54.211Z,101117.47
2023-01-22T07:31:23.204Z,101116.13
2023-01-22T07:33:50.862Z,101122.03
2023-01-22T07:36:18.463Z,101126.47
2023-01-22T07:38:46.101Z,101137.50
2023-01-22T07:41:25.234Z,101137.78
2023-01-22T07:43:56.073Z,101145.84
2023-01-22T07:46:25.353Z,101136.94
2023-01-22T07:48:53.359Z,101156.19
2023-01-22T07:51:21.068Z,101150.59
2023-01-22T07:53:48.731Z,101149.75
2023-01-22T07:56:17.972Z,101145.88
2023-01-22T07:58:47.380Z,101152.34
2023-01-22T08:01:15.690Z,101154.94
2023-01-22T08:03:45.234Z,101148.25
2023-01-22T08:06:16.741Z,101160.22
2023-01-22T08:08:44.736Z,101162.91
2023-01-22T08:11:12.252Z,101157.75
2023-01-22T08:13:39.833Z,101162.72
2023-01-22T08:16:09.213Z,101163.75
2023-01-22T08:18:37.001Z,101173.28
2023-01-22T08:21:07.230Z,101166.06
2023-01-22T08:23:37.153Z,101172.53
2023-01-22T08:26:05.744Z,101176.53
2023-01-22T08:28:33.617Z,101177.81
2023-01-22T08:31:11.288Z,101185.56
2023-01-22T08:33:44.082Z,101183.19
2023-01-22T08:36:13.185Z,101180.06
2023-01-22T08:38:42.004Z,101186.50
2023-01-22T08:41:09.572Z,101188.63
2023-01-22T08:43:37.179Z,101182.03
2023-01-22T08:46:07.401Z,101186.00
2023-01-22T08:48:35.102Z,101186.38
2023-01-22T08:51:03.206Z,101191.94
2023-01-22T08:53:32.220Z,101185.81
2023-01-22T08:55:59.885Z,101190.06
2023-01-22T08:58:27.916Z,101189.63
2023-01-22T09:00:56.018Z,101191.88
2023-01-22T09:03:24.766Z,101195.88
2023-01-22T09:05:52.449Z,101192.88
2023-01-22T09:08:20.344Z,101196.47
2023-01-22T09:10:52.674Z,101205.00
2023-01-22T09:13:20.223Z,101198.28
2023-01-22T09:15:48.115Z,101209.13
2023-01-22T09:18:15.688Z,101207.38
2023-01-22T09:20:43.349Z,101213.78
2023-01-22T09:23:10.945Z,101218.22
2023-01-22T09:25:38.664Z,101215.59
2023-01-22T09:28:09.087Z,101219.91
2023-01-22T09:30:39.567Z,101227.34
2023-01-22T09:33:07.268Z,101218.09
2023-01-22T09:35:34.867Z,101227.66
2023-01-22T09:38:03.446Z,101218.63
2023-01-22T09:40:35.105Z,101220.94
2023-01-22T09:43:07.527Z,101228.03
2023-01-22T09:45:38.959Z,101222.47
2023-01-22T09:48:10.790Z,101224.28
2023-01-22T09:50:39.066Z,101233.56
2023-01-22T09:53:12.760Z,101225.75
2023-01-22T09:55:45.633Z,101226.88
2023-01-22T09:58:18.863Z,101229.50
2023-01-22T10:00:51.905Z,101236.72
2023-01-22T10:03:26.027Z,101233.84
2023-01-22T10:05:57.606Z,101226.03
2023-01-22T10:08:30.128Z,101234.09
2023-01-22T10:11:00.923Z,101231.56
2023-01-22T10:13:32.974Z,101237.47
2023-01-22T10:16:00.732Z,101239.88
2023-01-22T10:18:34.431Z,101233.22
2023-01-22T10:21:05.667Z,101236.75
2023-01-22T10:23:35.571Z,101232.06
2023-01-22T10:26:15.023Z,101233.88
2023-01-22T10:28:48.920Z,101229.03
2023-01-22T10:31:25.611Z,101231.53
2023-01-22T10:33:58.514Z,101235.94
2023-01-22T10:36:26.699Z,101235.41
2023-01-22T10:39:05.252Z,101234.56
2023-01-22T10:41:33.807Z,101236.09
2023-01-22T10:44:23.749Z,101238.66
2023-01-22T10:46:52.526Z,101236.84
2023-01-22T10:49:24.798Z,101229.28
2023-01-22T10:51:55.291Z,101233.50
2023-01-22T10:54:27.619Z,101234.94
2023-01-22T10:57:05.886Z,101230.59
2023-01-22T10:59:35.306Z,101231.91
2023-01-22T11:02:12.077Z,101235.75
2023-01-22T11:04:39.700Z,101233.72
2023-01-22T11:07:09.712Z,101238.06
2023-01-22T11:09:41.389Z,101235.78
2023-01-22T11:12:16.559Z,101231.31
2023-01-22T11:14:46.814Z,101241.34
2023-01-22T11:17:20.290Z,101238.06
2023-01-22T11:19:56.593Z,101245.06
2023-01-22T11:22:29.739Z,101240.72
2023-01-22T11:24:57.436Z,101241.09
2023-01-22T11:27:36.696Z,101240.47
2023-01-22T11:30:27.125Z,101239.75
2023-01-22T11:33:04.980Z,101247.59
2023-01-22T11:35:40.985Z,101241.56
2023-01-22T11:38:20.094Z,101239.72
2023-01-22T11:41:02.630Z,101242.28
2023-01-22T11:43:47.343Z,101247.72
2023-01-22T11:46:27.932Z,101236.97
2023-01-22T11:49:06.802Z,101241.44
2023-01-22T11:51:42.083Z,101233.63
2023-01-22T11:54:38.876Z,101230.84
2023-01-22T11:57:15.902Z,101233.50
2023-01-22T12:00:00.185Z,101227.47
2023-01-22T12:02:50.702Z,101226.16
2023-01-22T12:05:31.232Z,101226.88
2023-01-22T12:08:09.887Z,101220.72
2023-01-22T12:10:52.917Z,101219.50
2023-01-22T12:13:37.288Z,101216.75
2023-01-22T12:16:13.823Z,101211.44
2023-01-22T12:19:14.122Z,101207.72
2023-01-22T12:21:56.310Z,101216.25
2023-01-22T12:24:28.334Z,101209.53
2023-01-22T12:29:57.267Z,101215.28
2023-01-22T12:32:28.249Z,101215.06
2023-01-22T12:35:03.314Z,101212.91
2023-01-22T12:37:41.166Z,101212.28
2023-01-22T12:40:28.221Z,101205.94
2023-01-22T12:43:02.229Z,101205.91
2023-01-22T12:45:41.430Z,101205.91
2023-01-22T12:48:26.376Z,101214.47
2023-01-22T12:50:57.495Z,101211.56
2023-01-22T12:53:35.181Z,101216.88
2023-01-22T12:56:05.617Z,101203.47
2023-01-22T12:58:35.958Z,101219.25
2023-01-22T13:01:15.607Z,101216.53
2023-01-22T13:03:45.766Z,101215.16
2023-01-22T13:06:22.437Z,101217.00
2023-01-22T13:08:50.004Z,101227.56
2023-01-22T13:11:30.017Z,101221.94
2023-01-22T13:14:14.773Z,101227.84
2023-01-22T13:16:52.736Z,101232.19
2023-01-22T13:19:22.914Z,101227.59
2023-01-22T13:21:52.944Z,101236.41
2023-01-22T13:24:22.505Z,101224.34
2023-01-22T13:26:56.503Z,101231.94
2023-01-22T13:29:27.987Z,101237.94
2023-01-22T13:31:57.642Z,101240.38
2023-01-22T13:34:26.128Z,101237.47
2023-01-22T13:36:55.802Z,101233.16
2023-01-22T13:39:27.253Z,101240.25
2023-01-22T13:41:57.236Z,101238.06
2023-01-22T13:44:27.985Z,101252.19
2023-01-22T13:46:55.699Z,101250.63
2023-01-22T13:49:25.249Z,101245.31
2023-01-22T13:51:53.605Z,101243.63
2023-01-22T13:54:30.051Z,101245.91
2023-01-22T13:56:57.713Z,101244.94
2023-01-22T13:59:27.447Z,101252.41
2023-01-22T14:01:55.474Z,101243.25
2023-01-22T14:04:31.792Z,101248.47
2023-01-22T14:06:59.515Z,101247.84
2023-01-22T14:09:33.864Z,101243.25
2023-01-22T14:12:13.415Z,101251.34
2023-01-22T14:14:41.777Z,101259.28
2023-01-22T14:17:09.411Z,101248.44
2023-01-22T14:19:37.444Z,101255.31
2023-01-22T14:22:05.055Z,101252.06
2023-01-22T14:24:33.967Z,101251.59
2023-01-22T14:27:01.747Z,101257.84
2023-01-22T14:29:29.422Z,101259.16
2023-01-22T14:31:57.094Z,101258.19
2023-01-22T14:34:24.784Z,101258.19
2023-01-22T14:36:52.617Z,101265.19
2023-01-22T14:39:21.609Z,101259.78
2023-01-22T14:41:51.367Z,101261.47
2023-01-22T14:44:19.256Z,101259.03
2023-01-22T14:46:46.907Z,101270.38
2023-01-22T14:49:14.576Z,101269.06
2023-01-22T14:51:42.204Z,101266.78
2023-01-22T14:54:09.749Z,101280.75
2023-01-22T14:56:37.512Z,101271.09
2023-01-22T14:59:06.424Z,101272.75
2023-01-22T15:01:34.365Z,101268.44
2023-01-22T15:04:04.872Z,101280.72
2023-01-22T15:06:32.498Z,101283.09
2023-01-22T15:09:00.747Z,101287.88
2023-01-22T15:11:28.338Z,101281.53
2023-01-22T15:13:56.415Z,101274.31
2023-01-22T15:16:25.450Z,101273.38
2023-01-22T15:18:55.776Z,101275.63
2023-01-22T15:21:23.689Z,101287.84
2023-01-22T15:23:51.729Z,101287.44
2023-01-22T15:26:27.021Z,101285.53
2023-01-22T15:28:54.918Z,101289.13
2023-01-22T15:31:22.586Z,101301.66
2023-01-22T15:33:51.680Z,101300.81
2023-01-22T15:36:19.800Z,101302.28
2023-01-22T15:38:47.316Z,101308.69
2023-01-22T15:41:22.712Z,101309.13
2023-01-22T15:43:51.704Z,101308.31
2023-01-22T15:46:20.031Z,101306.59
2023-01-22T15:48:48.314Z,101302.50
2023-01-22T15:51:20.146Z,101309.63
2023-01-22T15:53:52.121Z,101314.91
2023-01-22T15:56:20.993Z,101316.81
2023-01-22T15:58:50.882Z,101322.31
2023-01-22T16:01:19.678Z,101318.00
2023-01-22T16:03:47.639Z,101318.94
2023-01-22T16:06:17.225Z,101317.66
2023-01-22T16:08:47.745Z,101321.59
2023-01-22T16:11:17.248Z,101325.59
2023-01-22T16:13:44.952Z,101327.41
2023-01-22T16:16:16.669Z,101328.28
2023-01-22T16:18:52.592Z,101336.47
2023-01-22T16:21:22.659Z,101329.25
2023-01-22T16:23:54.365Z,101329.44
2023-01-22T16:26:24.329Z,101337.63
2023-01-22T16:28:54.449Z,101335.31
2023-01-22T16:31:23.841Z,101337.13
2023-01-22T16:33:55.051Z,101346.28
2023-01-22T16:36:27.648Z,101347.53
2023-01-22T16:38:56.586Z,101350.53
2023-01-22T16:41:27.829Z,101355.34
2023-01-22T16:43:58.481Z,101359.28
2023-01-22T16:46:27.870Z,101357.31
2023-01-22T16:49:00.904Z,101361.28
2023-01-22T16:51:30.099Z,101355.28
2023-01-22T16:53:59.103Z,101348.53
2023-01-22T16:56:26.818Z,101354.03
2023-01-22T16:58:54.478Z,101362.56
2023-01-22T17:01:22.503Z,101370.22
2023-01-22T17:03:50.211Z,101365.94
2023-01-22T17:06:26.636Z,101374.66
2023-01-22T17:08:55.285Z,101373.53
2023-01-22T17:11:24.430Z,101375.13
2023-01-22T17:13:52.233Z,101373.94
2023-01-22T17:16:25.570Z,101379.06
2023-01-22T17:18:54.689Z,101374.97
2023-01-22T17:21:22.525Z,101380.88
2023-01-22T17:23:50.190Z,101389.41
2023-01-22T17:26:19.033Z,101390.19
2023-01-22T17:28:48.274Z,101389.59
2023-01-22T17:31:18.688Z,101393.88
2023-01-22T17:33:46.577Z,101393.75
2023-01-22T17:36:18.311Z,101393.88
2023-01-22T17:38:46.164Z,101390.63
2023-01-22T17:41:16.134Z,101398.66
2023-01-22T17:43:45.085Z,101398.66
2023-01-22T17:46:16.518Z,101397.78
2023-01-22T17:48:46.149Z,101406.91
2023-01-22T17:51:15.678Z,101399.69
2023-01-22T17:53:44.748Z,101402.09
2023-01-22T17:56:14.330Z,101417.81
2023-01-22T17:58:43.369Z,101418.19
2023-01-22T18:01:13.136Z,101417.34
2023-01-22T18:03:42.420Z,101415.16
2023-01-22T18:06:12.811Z,101425.34
2023-01-22T18:08:42.288Z,101426.22
2023-01-22T18:11:12.416Z,101419.75
2023-01-22T18:13:40.832Z,101427.28
2023-01-22T18:16:10.543Z,101429.72
2023-01-22T18:18:39.021Z,101421.38
2023-01-22T18:21:12.812Z,101432.91
2023-01-22T18:23:40.681Z,101438.81
2023-01-22T18:26:09.437Z,101438.75
2023-01-22T18:28:37.733Z,101444.16
2023-01-22T18:31:06.809Z,101444.78
2023-01-22T18:33:35.998Z,101440.66
2023-01-22T18:36:05.537Z,101441.63
2023-01-22T18:38:36.755Z,101447.75
2023-01-22T18:41:10.255Z,101446.84
2023-01-22T18:43:39.118Z,101453.94
2023-01-22T18:46:07.940Z,101444.50
2023-01-22T18:48:35.997Z,101448.63
2023-01-22T18:51:05.808Z,101451.19
2023-01-22T18:53:35.543Z,101448.00
2023-01-22T18:56:06.883Z,101448.97
2023-01-22T18:58:35.167Z,101444.75
2023-01-22T19:01:09.989Z,101455.75
2023-01-22T19:03:40.791Z,101455.84
2023-01-22T19:06:13.936Z,101455.84
2023-01-22T19:08:45.931Z,101453.19
2023-01-22T19:11:14.878Z,101458.41
2023-01-22T19:13:44.802Z,101463.59
2023-01-22T19:16:14.960Z,101455.84
2023-01-22T19:18:43.940Z,101464.09
2023-01-22T19:21:13.796Z,101459.03
2023-01-22T19:23:46.382Z,101466.63
2023-01-22T19:26:17.533Z,101466.53
2023-01-22T19:28:45.468Z,101471.72
2023-01-22T19:31:35.070Z,101483.53
2023-01-22T19:34:04.603Z,101485.34
2023-01-22T19:36:34.743Z,101488.56
2023-01-22T19:39:06.400Z,101488.22
2023-01-22T19:41:35.455Z,101494.56
2023-01-22T19:44:03.695Z,101497.31
2023-01-22T19:46:31.712Z,101497.31
2023-01-22T19:48:59.425Z,101499.34
2023-01-22T19:51:30.491Z,101493.19
2023-01-22T19:53:59.891Z,101494.34
2023-01-22T19:56:31.640Z,101502.19
2023-01-22T19:59:02.594Z,101499.97
2023-01-22T20:01:30.589Z,101500.28
2023-01-22T20:03:58.287Z,101502.41
2023-01-22T20:06:26.447Z,101509.16
2023-01-22T20:08:58.872Z,101509.28
2023-01-22T20:11:27.942Z,101518.25
2023-01-22T20:13:57.208Z,101518.38
2023-01-22T20:16:26.550Z,101514.47
2023-01-22T20:18:55.894Z,101524.00
2023-01-22T20:21:26.550Z,101523.44
2023-01-22T20:23:54.339Z,101519.84
2023-01-22T20:26:23.151Z,101525.59
2023-01-22T20:28:51.445Z,101522.81
2023-01-22T20:31:23.588Z,101515.75
2023-01-22T20:33:52.435Z,101514.03
2023-01-22T20:36:21.628Z,101509.16
2023-01-22T20:38:52.852Z,101511.81
2023-01-22T20:41:23.976Z,101526.88
2023-01-22T20:43:51.906Z,101525.72
2023-01-22T20:46:22.637Z,101527.19
2023-01-22T20:48:53.087Z,101528.25
2023-01-22T20:51:22.788Z,101517.25
2023-01-22T20:53:52.281Z,101523.16
2023-01-22T20:56:22.599Z,101517.34
2023-01-22T20:58:55.433Z,101528.47
2023-01-22T21:01:24.566Z,101524.84
2023-01-22T21:03:52.806Z,101528.47
2023-01-22T21:06:21.787Z,101527.72
2023-01-22T21:08:52.102Z,101533.97
2023-01-22T21:11:21.244Z,101533.47
2023-01-22T21:13:49.795Z,101529.50
2023-01-22T21:16:19.356Z,101535.34
2023-01-22T21:18:48.569Z,101533.66
2023-01-22T21:21:18.617Z,101540.84
2023-01-22T21:23:48.058Z,101531.31
2023-01-22T21:26:19.047Z,101539.69
2023-01-22T21:28:48.184Z,101531.53
2023-01-22T21:31:17.719Z,101534.81
2023-01-22T21:33:45.997Z,101532.47
2023-01-22T21:36:18.230Z,101529.09
2023-01-22T21:38:51.984Z,101529.41
2023-01-22T21:41:20.647Z,101519.66
2023-01-22T21:44:06.382Z,101532.78
2023-01-22T21:46:36.652Z,101527.84
2023-01-22T21:49:16.194Z,101530.69
2023-01-22T21:51:47.056Z,101530.69
2023-01-22T21:54:16.076Z,101537.78
2023-01-22T21:56:43.741Z,101536.00
2023-01-22T21:59:11.604Z,101533.22
2023-01-22T22:01:39.411Z,101535.44
2023-01-22T22:04:08.394Z,101540.75
2023-01-22T22:06:36.887Z,101545.00
2023-01-22T22:09:07.834Z,101535.88
2023-01-22T22:11:35.831Z,101537.53
2023-01-22T22:14:05.651Z,101551.97
2023-01-22T22:16:33.835Z,101541.59
2023-01-22T22:19:01.552Z,101548.25
2023-01-22T22:21:29.277Z,101548.78
2023-01-22T22:23:57.930Z,101545.00
2023-01-22T22:26:29.159Z,101550.06
2023-01-22T22:28:58.035Z,101552.38
2023-01-22T22:31:25.892Z,101551.13
2023-01-22T22:33:55.403Z,101557.56
2023-01-22T22:36:25.144Z,101558.53
2023-01-22T22:38:53.104Z,101558.13
2023-01-22T22:41:22.698Z,101561.91
2023-01-22T22:43:53.471Z,101560.97
2023-01-22T22:46:23.838Z,101556.84
2023-01-22T22:48:52.945Z,101571.03
2023-01-22T22:51:29.043Z,101575.03
2023-01-22T22:53:59.530Z,101563.59
2023-01-22T22:56:31.077Z,101557.06
2023-01-22T22:59:01.957Z,101562.75
2023-01-22T23:01:31.431Z,101557.91
2023-01-22T23:03:59.156Z,101560.66
2023-01-22T23:06:29.385Z,101569.56
2023-01-22T23:08:59.331Z,101573.66
2023-01-22T23:11:29.933Z,101576.50
2023-01-22T23:14:02.644Z,101573.78
2023-01-22T23:16:35.819Z,101569.00
2023-01-22T23:19:08.204Z,101570.56
2023-01-22T23:21:36.394Z,101558.94
2023-01-22T23:24:04.381Z,101560.22
2023-01-22T23:26:32.311Z,101564.03
2023-01-22T23:29:02.542Z,101571.13
2023-01-22T23:31:34.322Z,101569.00
2023-01-22T23:34:03.547Z,101563.50
2023-01-22T23:36:32.680Z,101573.44
2023-01-22T23:39:00.374Z,101570.59
2023-01-22T23:41:28.435Z,101579.16
2023-01-22T23:43:56.042Z,101575.47
2023-01-22T23:46:26.117Z,101584.25
2023-01-22T23:48:57.116Z,101575.59
2023-01-22T23:51:26.027Z,101576.53
2023-01-22T23:53:54.349Z,101573.56
2023-01-22T23:56:24.165Z,101571.44
2023-01-22T23:58:54.981Z,101573.78
